Time,TemperatureF,DewpointF,PressureIn,WindDirection,WindDirectionDegrees,WindSpeedMPH,WindSpeedGustMPH,Humidity,HourlyPrecipIn,Conditions,Clouds,dailyrainin,SoftwareType,DateUTC
2013-03-25 00:00:00,42.8,31.5,30.01,North,360,4.0,10.0,64,0.00,,---,0.00,VWS V14.01,2013-03-25 05:00:00,
2013-03-25 00:04:00,44.2,31.2,29.99,North,355,3.0,12.0,60,0.00,,---,0.00,VWS V14.01,2013-03-25 05:04:00,
2013-03-25 00:09:00,44.1,31.5,29.99,North,355,0.0,12.0,61,0.00,,---,0.00,VWS V14.01,2013-03-25 05:09:00,
2013-03-25 00:14:00,43.9,31.3,30.00,North,355,1.0,2.0,61,0.00,,---,0.00,VWS V14.01,2013-03-25 05:14:00,
2013-03-25 00:15:00,42.2,31.3,30.01,North,351,2.0,11.0,65,0.00,,---,0.00,VWS V14.01,2013-03-25 05:15:00,
2013-03-25 00:19:00,43.8,31.2,30.00,NNW,336,4.0,6.0,61,0.00,,---,0.00,VWS V14.01,2013-03-25 05:19:00,
2013-03-25 00:24:00,43.5,31.4,30.00,North,355,5.0,6.0,62,0.00,,---,0.00,VWS V14.01,2013-03-25 05:24:00,
2013-03-25 00:29:00,43.3,31.6,30.00,North,360,5.0,7.0,63,0.00,,---,0.00,VWS V14.01,2013-03-25 05:29:00,
2013-03-25 00:30:00,41.9,31.0,30.02,North,5,3.0,9.0,65,0.00,,---,0.00,VWS V14.01,2013-03-25 05:30:00,
2013-03-25 00:34:00,43.2,31.1,30.00,North,360,4.0,10.0,62,0.00,,---,0.00,VWS V14.01,2013-03-25 05:34:00,
2013-03-25 00:39:00,43.1,31.4,30.00,NNW,340,7.0,10.0,63,0.00,,---,0.00,VWS V14.01,2013-03-25 05:39:00,
2013-03-25 00:44:00,42.9,31.2,30.00,North,5,3.0,4.0,63,0.00,,---,0.00,VWS V14.01,2013-03-25 05:44:00,
2013-03-25 00:45:00,41.8,30.9,30.03,North,5,2.0,15.0,65,0.00,,---,0.00,VWS V14.01,2013-03-25 05:45:00,
2013-03-25 00:49:00,42.9,31.2,30.00,NNW,347,4.0,10.0,63,0.00,,---,0.00,VWS V14.01,2013-03-25 05:49:00,
2013-03-25 00:54:00,42.9,31.2,30.00,North,355,1.0,10.0,63,0.00,,---,0.00,VWS V14.01,2013-03-25 05:54:00,
2013-03-25 00:59:00,42.8,31.5,30.01,NNE,15,4.0,4.0,64,0.00,,---,0.00,VWS V14.01,2013-03-25 05:59:00,
2013-03-25 01:00:00,41.3,30.1,30.03,NNW,344,4.0,12.0,64,0.00,,---,0.00,VWS V14.01,2013-03-25 06:00:00,
2013-03-25 01:04:00,42.6,31.3,30.01,NNW,344,3.0,11.0,64,0.00,,---,0.00,VWS V14.01,2013-03-25 06:04:00,
2013-03-25 01:09:00,42.3,31.4,30.01,NNW,346,4.0,11.0,65,0.00,,---,0.00,VWS V14.01,2013-03-25 06:09:00,
2013-03-25 01:14:00,42.2,31.7,30.01,NNE,18,4.0,4.0,66,0.00,,---,0.00,VWS V14.01,2013-03-25 06:14:00,
2013-03-25 01:15:00,41.3,30.4,30.03,North,5,2.0,14.0,65,0.00,,---,0.00,VWS V14.01,2013-03-25 06:15:00,
2013-03-25 01:19:00,42.1,31.6,30.01,North,5,0.0,5.0,66,0.00,,---,0.00,VWS V14.01,2013-03-25 06:19:00,
2013-03-25 01:25:00,41.8,31.3,30.01,NNW,344,4.0,9.0,66,0.00,,---,0.00,VWS V14.01,2013-03-25 06:25:00,
2013-03-25 01:30:00,41.9,31.4,30.02,NNE,28,8.0,10.0,66,0.00,,---,0.00,VWS V14.01,2013-03-25 06:30:00,
2013-03-25 01:35:00,41.8,30.9,30.02,NE,39,10.0,15.0,65,0.00,,---,0.00,VWS V14.01,2013-03-25 06:35:00,
2013-03-25 01:40:00,41.8,30.9,30.02,NNW,347,0.0,15.0,65,0.00,,---,0.00,VWS V14.01,2013-03-25 06:40:00,
2013-03-25 01:45:00,41.8,30.9,30.03,NNW,337,5.0,5.0,65,0.00,,---,0.00,VWS V14.01,2013-03-25 06:45:00,
2013-03-25 01:50:00,41.6,30.7,30.03,NNW,345,5.0,10.0,65,0.00,,---,0.00,VWS V14.01,2013-03-25 06:50:00,
2013-03-25 01:55:00,41.5,30.6,30.03,North,355,3.0,11.0,65,0.00,,---,0.00,VWS V14.01,2013-03-25 06:55:00,
2013-03-25 02:00:00,41.3,30.1,30.03,North,355,4.0,8.0,64,0.00,,---,0.00,VWS V14.01,2013-03-25 07:00:00,
2013-03-25 02:05:00,41.3,30.4,30.03,North,5,10.0,14.0,65,0.00,,---,0.00,VWS V14.01,2013-03-25 07:05:00,
2013-03-25 02:10:00,41.3,30.1,30.03,North,360,5.0,14.0,64,0.00,,---,0.00,VWS V14.01,2013-03-25 07:10:00,
2013-03-25 02:15:00,41.2,30.3,30.03,North,360,4.0,6.0,65,0.00,,---,0.00,VWS V14.01,2013-03-25 07:15:00,
2013-03-25 02:20:00,41.2,30.3,30.03,NNW,347,3.0,13.0,65,0.00,,---,0.00,VWS V14.01,2013-03-25 07:20:00,
2013-03-25 02:25:00,41.1,30.2,30.03,NNE,26,7.0,13.0,65,0.00,,---,0.00,VWS V14.01,2013-03-25 07:25:00,
2013-03-25 02:30:00,40.9,30.1,30.03,North,350,3.0,7.0,65,0.00,,---,0.00,VWS V14.01,2013-03-25 07:30:00,
2013-03-25 02:35:00,40.8,30.0,30.03,North,355,2.0,9.0,65,0.00,,---,0.00,VWS V14.01,2013-03-25 07:35:00,
2013-03-25 02:40:00,40.6,30.1,30.03,NNW,344,0.0,9.0,66,0.00,,---,0.00,VWS V14.01,2013-03-25 07:40:00,
2013-03-25 02:45:00,40.5,30.4,30.03,NNW,331,3.0,4.0,67,0.00,,---,0.00,VWS V14.01,2013-03-25 07:45:00,
2013-03-25 02:50:00,40.2,30.1,30.03,North,360,2.0,7.0,67,0.00,,---,0.00,VWS V14.01,2013-03-25 07:50:00,
2013-03-25 02:55:00,40.2,30.1,30.03,North,5,3.0,9.0,67,0.00,,---,0.00,VWS V14.01,2013-03-25 07:55:00,
2013-03-25 03:00:00,38.5,30.3,30.02,North,355,5.0,10.0,72,0.00,,---,0.00,VWS V14.01,2013-03-25 08:00:00,
2013-03-25 03:01:00,40.1,30.0,30.02,NNW,348,5.0,6.0,67,0.00,,---,0.00,VWS V14.01,2013-03-25 08:01:00,
2013-03-25 03:06:00,39.9,30.2,30.02,North,350,0.0,6.0,68,0.00,,---,0.00,VWS V14.01,2013-03-25 08:06:00,
2013-03-25 03:11:00,39.8,30.1,30.02,NNW,346,2.0,7.0,68,0.00,,---,0.00,VWS V14.01,2013-03-25 08:11:00,
2013-03-25 03:15:00,38.0,30.1,30.02,North,360,0.0,6.0,73,0.00,,---,0.00,VWS V14.01,2013-03-25 08:15:00,
2013-03-25 03:16:00,39.6,30.3,30.02,NW,325,0.0,4.0,69,0.00,,---,0.00,VWS V14.01,2013-03-25 08:16:00,
2013-03-25 03:21:00,39.3,30.0,30.02,North,360,2.0,4.0,69,0.00,,---,0.00,VWS V14.01,2013-03-25 08:21:00,
2013-03-25 03:26:00,39.2,30.2,30.02,North,11,1.0,4.0,70,0.00,,---,0.00,VWS V14.01,2013-03-25 08:26:00,
2013-03-25 03:30:00,37.6,30.4,30.03,NNE,21,0.0,5.0,75,0.00,,---,0.00,VWS V14.01,2013-03-25 08:30:00,
2013-03-25 03:31:00,38.9,30.0,30.02,NNE,15,3.0,4.0,70,0.00,,---,0.00,VWS V14.01,2013-03-25 08:31:00,
2013-03-25 03:36:00,38.8,30.2,30.02,North,355,3.0,6.0,71,0.00,,---,0.00,VWS V14.01,2013-03-25 08:36:00,
2013-03-25 03:41:00,38.8,30.2,30.02,North,355,5.0,7.0,71,0.00,,---,0.00,VWS V14.01,2013-03-25 08:41:00,
2013-03-25 03:45:00,37.2,30.3,30.03,NW,321,0.0,5.0,76,0.00,,---,0.00,VWS V14.01,2013-03-25 08:45:00,
2013-03-25 03:46:00,38.6,30.0,30.02,North,360,2.0,9.0,71,0.00,,---,0.00,VWS V14.01,2013-03-25 08:46:00,
2013-03-25 03:51:00,38.6,30.4,30.02,North,10,5.0,9.0,72,0.00,,---,0.00,VWS V14.01,2013-03-25 08:51:00,
2013-03-25 03:56:00,38.5,30.3,30.02,North,360,5.0,10.0,72,0.00,,---,0.00,VWS V14.01,2013-03-25 08:56:00,
2013-03-25 04:00:00,36.8,30.3,30.03,North,9,3.0,6.0,77,0.00,,---,0.00,VWS V14.01,2013-03-25 09:00:00,
2013-03-25 04:01:00,38.3,30.1,30.02,North,355,5.0,5.0,72,0.00,,---,0.00,VWS V14.01,2013-03-25 09:01:00,
2013-03-25 04:07:00,38.2,30.3,30.02,North,10,4.0,6.0,73,0.00,,---,0.00,VWS V14.01,2013-03-25 09:07:00,
2013-03-25 04:12:00,38.0,30.1,30.02,NNW,338,2.0,6.0,73,0.00,,---,0.00,VWS V14.01,2013-03-25 09:12:00,
2013-03-25 04:15:00,36.6,30.1,30.04,NNW,338,0.0,5.0,77,0.00,,---,0.00,VWS V14.01,2013-03-25 09:15:00,
2013-03-25 04:17:00,37.9,30.4,30.02,North,5,2.0,4.0,74,0.00,,---,0.00,VWS V14.01,2013-03-25 09:17:00,
2013-03-25 04:22:00,37.8,30.3,30.02,North,360,0.0,5.0,74,0.00,,---,0.00,VWS V14.01,2013-03-25 09:22:00,
2013-03-25 04:27:00,37.6,30.1,30.02,NNE,21,0.0,5.0,74,0.00,,---,0.00,VWS V14.01,2013-03-25 09:27:00,
2013-03-25 04:30:00,36.5,29.7,30.05,North,5,1.0,7.0,76,0.00,,---,0.00,VWS V14.01,2013-03-25 09:30:00,
2013-03-25 04:32:00,37.5,30.3,30.03,NNE,21,3.0,3.0,75,0.00,,---,0.00,VWS V14.01,2013-03-25 09:32:00,
2013-03-25 04:37:00,37.3,30.1,30.03,North,350,0.0,4.0,75,0.00,,---,0.00,VWS V14.01,2013-03-25 09:37:00,
2013-03-25 04:42:00,37.2,30.4,30.03,North,360,0.0,5.0,76,0.00,,---,0.00,VWS V14.01,2013-03-25 09:42:00,
2013-03-25 04:45:00,36.3,29.8,30.06,North,11,0.0,6.0,77,0.00,,---,0.00,VWS V14.01,2013-03-25 09:45:00,
2013-03-25 04:47:00,37.0,30.1,30.03,NW,324,0.0,3.0,76,0.00,,---,0.00,VWS V14.01,2013-03-25 09:47:00,
2013-03-25 04:52:00,36.9,30.0,30.03,NNW,330,0.0,3.0,76,0.00,,---,0.00,VWS V14.01,2013-03-25 09:52:00,
2013-03-25 04:57:00,36.8,30.0,30.03,North,5,2.0,6.0,76,0.00,,---,0.00,VWS V14.01,2013-03-25 09:57:00,
2013-03-25 05:00:00,35.9,29.4,30.07,NNE,26,5.0,5.0,77,0.00,,---,0.00,VWS V14.01,2013-03-25 10:00:00,
2013-03-25 05:02:00,36.8,30.0,30.03,NNW,348,1.0,4.0,76,0.00,,---,0.00,VWS V14.01,2013-03-25 10:02:00,
2013-03-25 05:07:00,36.8,30.3,30.03,North,360,1.0,5.0,77,0.00,,---,0.00,VWS V14.01,2013-03-25 10:07:00,
2013-03-25 05:12:00,36.6,30.1,30.03,North,355,2.0,5.0,77,0.00,,---,0.00,VWS V14.01,2013-03-25 10:12:00,
2013-03-25 05:15:00,35.8,29.3,30.08,NNW,340,0.0,5.0,77,0.00,,---,0.00,VWS V14.01,2013-03-25 10:15:00,
2013-03-25 05:17:00,36.6,30.1,30.04,North,350,7.0,7.0,77,0.00,,---,0.00,VWS V14.01,2013-03-25 10:17:00,
2013-03-25 05:22:00,36.6,29.8,30.04,NNW,345,3.0,7.0,76,0.00,,---,0.00,VWS V14.01,2013-03-25 10:22:00,
2013-03-25 05:27:00,36.5,29.7,30.04,North,5,4.0,7.0,76,0.00,,---,0.00,VWS V14.01,2013-03-25 10:27:00,
2013-03-25 05:30:00,35.5,29.0,30.08,North,5,0.0,4.0,77,0.00,,---,0.00,VWS V14.01,2013-03-25 10:30:00,
2013-03-25 05:33:00,36.5,29.7,30.05,North,10,0.0,6.0,76,0.00,,---,0.00,VWS V14.01,2013-03-25 10:33:00,
2013-03-25 05:38:00,36.3,29.5,30.05,North,10,0.0,6.0,76,0.00,,---,0.00,VWS V14.01,2013-03-25 10:38:00,
2013-03-25 05:43:00,36.3,29.5,30.05,North,11,0.0,6.0,76,0.00,,---,0.00,VWS V14.01,2013-03-25 10:43:00,
2013-03-25 05:45:00,35.0,29.2,30.09,North,5,0.0,4.0,79,0.00,,---,0.00,VWS V14.01,2013-03-25 10:45:00,
2013-03-25 05:48:00,36.2,29.7,30.06,North,11,0.0,2.0,77,0.00,,---,0.00,VWS V14.01,2013-03-25 10:48:00,
2013-03-25 05:53:00,36.0,29.5,30.06,NNE,24,0.0,5.0,77,0.00,,---,0.00,VWS V14.01,2013-03-25 10:53:00,
2013-03-25 05:58:00,35.9,29.4,30.07,North,355,0.0,5.0,77,0.00,,---,0.00,VWS V14.01,2013-03-25 10:58:00,
2013-03-25 06:00:00,34.6,29.1,30.10,North,5,0.0,1.0,80,0.00,,---,0.00,VWS V14.01,2013-03-25 11:00:00,
2013-03-25 06:03:00,35.9,29.4,30.07,NNW,339,0.0,5.0,77,0.00,,---,0.00,VWS V14.01,2013-03-25 11:03:00,
2013-03-25 06:08:00,35.9,29.4,30.07,NNE,17,1.0,5.0,77,0.00,,---,0.00,VWS V14.01,2013-03-25 11:08:00,
2013-03-25 06:13:00,35.8,29.3,30.08,NNW,340,2.0,5.0,77,0.00,,---,0.00,VWS V14.01,2013-03-25 11:13:00,
2013-03-25 06:15:00,34.4,29.5,30.11,North,5,0.0,3.0,82,0.00,,---,0.00,VWS V14.01,2013-03-25 11:15:00,
2013-03-25 06:18:00,35.8,29.3,30.08,North,5,0.0,4.0,77,0.00,,---,0.00,VWS V14.01,2013-03-25 11:18:00,
2013-03-25 06:23:00,35.6,29.1,30.08,North,5,0.0,4.0,77,0.00,,---,0.00,VWS V14.01,2013-03-25 11:23:00,
2013-03-25 06:28:00,35.6,29.1,30.08,North,5,0.0,4.0,77,0.00,,---,0.00,VWS V14.01,2013-03-25 11:28:00,
2013-03-25 06:30:00,34.4,29.5,30.11,North,5,0.0,2.0,82,0.00,,---,0.00,VWS V14.01,2013-03-25 11:30:00,
2013-03-25 06:33:00,35.3,29.1,30.08,North,5,0.0,0.0,78,0.00,,---,0.00,VWS V14.01,2013-03-25 11:33:00,
2013-03-25 06:39:00,35.2,29.0,30.08,North,5,0.0,4.0,78,0.00,,---,0.00,VWS V14.01,2013-03-25 11:39:00,
2013-03-25 06:44:00,35.0,29.2,30.09,North,5,0.0,4.0,79,0.00,,---,0.00,VWS V14.01,2013-03-25 11:44:00,
2013-03-25 06:45:00,34.7,29.8,30.11,North,5,0.0,2.0,82,0.00,,---,0.00,VWS V14.01,2013-03-25 11:45:00,
2013-03-25 06:49:00,34.9,29.1,30.09,North,5,0.0,1.0,79,0.00,,---,0.00,VWS V14.01,2013-03-25 11:49:00,
2013-03-25 06:54:00,34.7,29.2,30.09,North,5,0.0,1.0,80,0.00,,---,0.00,VWS V14.01,2013-03-25 11:54:00,
2013-03-25 06:59:00,34.6,29.1,30.10,North,5,0.0,0.0,80,0.00,,---,0.00,VWS V14.01,2013-03-25 11:59:00,
2013-03-25 07:00:00,35.3,30.1,30.11,North,351,3.0,7.0,81,0.00,,---,0.00,VWS V14.01,2013-03-25 12:00:00,
2013-03-25 07:04:00,34.4,29.2,30.10,North,5,0.0,1.0,81,0.00,,---,0.00,VWS V14.01,2013-03-25 12:04:00,
2013-03-25 07:09:00,34.4,29.5,30.10,North,5,0.0,2.0,82,0.00,,---,0.00,VWS V14.01,2013-03-25 12:09:00,
2013-03-25 07:14:00,34.4,29.5,30.11,North,5,0.0,0.0,82,0.00,,---,0.00,VWS V14.01,2013-03-25 12:14:00,
2013-03-25 07:15:00,36.5,30.0,30.12,North,350,5.0,13.0,77,0.00,,---,0.00,VWS V14.01,2013-03-25 12:15:00,
2013-03-25 07:19:00,34.4,29.5,30.11,North,5,0.0,2.0,82,0.00,,---,0.00,VWS V14.01,2013-03-25 12:19:00,
2013-03-25 07:24:00,34.4,29.5,30.11,North,5,0.0,2.0,82,0.00,,---,0.00,VWS V14.01,2013-03-25 12:24:00,
2013-03-25 07:29:00,34.4,29.5,30.11,North,5,0.0,0.0,82,0.00,,---,0.00,VWS V14.01,2013-03-25 12:29:00,
2013-03-25 07:30:00,37.3,28.8,30.14,North,360,13.0,17.0,71,0.00,,---,0.00,VWS V14.01,2013-03-25 12:30:00,
2013-03-25 07:34:00,34.6,29.7,30.11,North,5,0.0,2.0,82,0.00,,---,0.00,VWS V14.01,2013-03-25 12:34:00,
2013-03-25 07:39:00,34.6,29.7,30.11,North,5,0.0,2.0,82,0.00,,---,0.00,VWS V14.01,2013-03-25 12:39:00,
2013-03-25 07:44:00,34.7,29.8,30.11,North,5,0.0,0.0,82,0.00,,---,0.00,VWS V14.01,2013-03-25 12:44:00,
2013-03-25 07:45:00,38.0,27.3,30.14,NW,315,4.0,22.0,65,0.00,,---,0.00,VWS V14.01,2013-03-25 12:45:00,
2013-03-25 07:49:00,34.9,30.0,30.11,NNW,342,4.0,5.0,82,0.00,,---,0.00,VWS V14.01,2013-03-25 12:49:00,
2013-03-25 07:54:00,35.2,30.3,30.11,North,5,2.0,5.0,82,0.00,,---,0.00,VWS V14.01,2013-03-25 12:54:00,
2013-03-25 07:59:00,35.5,30.3,30.11,NNW,337,10.0,10.0,81,0.00,,---,0.00,VWS V14.01,2013-03-25 12:59:00,
2013-03-25 08:00:00,39.1,27.6,30.15,NNW,335,6.0,19.0,63,0.00,,---,0.00,VWS V14.01,2013-03-25 13:00:00,
2013-03-25 08:04:00,35.8,29.9,30.11,North,360,3.0,13.0,79,0.00,,---,0.00,VWS V14.01,2013-03-25 13:04:00,
2013-03-25 08:09:00,36.0,29.5,30.11,NNE,19,5.0,13.0,77,0.00,,---,0.00,VWS V14.01,2013-03-25 13:09:00,
2013-03-25 08:14:00,36.5,29.7,30.12,North,349,7.0,7.0,76,0.00,,---,0.00,VWS V14.01,2013-03-25 13:14:00,
2013-03-25 08:15:00,40.1,26.1,30.15,NNE,19,7.0,17.0,57,0.00,,---,0.00,VWS V14.01,2013-03-25 13:15:00,
2013-03-25 08:20:00,36.9,29.7,30.12,NNW,346,6.0,9.0,75,0.00,,---,0.00,VWS V14.01,2013-03-25 13:20:00,
2013-03-25 08:25:00,37.0,29.2,30.12,NNW,342,11.0,17.0,73,0.00,,---,0.00,VWS V14.01,2013-03-25 13:25:00,
2013-03-25 08:30:00,37.3,28.8,30.14,North,355,8.0,13.0,71,0.00,,---,0.00,VWS V14.01,2013-03-25 13:30:00,
2013-03-25 08:35:00,37.5,27.9,30.14,North,5,11.0,16.0,68,0.00,,---,0.00,VWS V14.01,2013-03-25 13:35:00,
2013-03-25 08:40:00,37.9,28.3,30.14,NNE,26,17.0,19.0,68,0.00,,---,0.00,VWS V14.01,2013-03-25 13:40:00,
2013-03-25 08:45:00,38.2,28.2,30.14,NNW,338,7.0,10.0,67,0.00,,---,0.00,VWS V14.01,2013-03-25 13:45:00,
2013-03-25 08:50:00,38.6,28.6,30.14,NNW,340,9.0,13.0,67,0.00,,---,0.00,VWS V14.01,2013-03-25 13:50:00,
2013-03-25 08:55:00,38.9,27.4,30.14,North,360,4.0,19.0,63,0.00,,---,0.00,VWS V14.01,2013-03-25 13:55:00,
2013-03-25 09:00:00,39.2,28.1,30.15,North,355,7.0,13.0,64,0.00,,---,0.00,VWS V14.01,2013-03-25 14:00:00,
2013-03-25 09:05:00,39.3,26.2,30.15,NNW,338,15.0,17.0,59,0.00,,---,0.00,VWS V14.01,2013-03-25 14:05:00,
2013-03-25 09:10:00,39.8,26.2,30.15,NW,320,4.0,17.0,58,0.00,,---,0.00,VWS V14.01,2013-03-25 14:10:00,
2013-03-25 09:15:00,40.2,26.2,30.15,NNW,342,9.0,15.0,57,0.00,,---,0.00,VWS V14.01,2013-03-25 14:15:00,
2013-03-25 09:20:00,40.5,26.0,30.15,NNW,333,11.0,18.0,56,0.00,,---,0.00,VWS V14.01,2013-03-25 14:20:00,
2013-03-25 09:25:00,40.8,25.9,30.15,North,355,6.0,18.0,55,0.00,,---,0.00,VWS V14.01,2013-03-25 14:25:00,
2013-03-25 09:30:00,41.2,25.8,30.16,NNE,23,7.0,14.0,54,0.00,,---,0.00,VWS V14.01,2013-03-25 14:30:00,
2013-03-25 09:35:00,41.6,24.8,30.16,NNE,24,10.0,17.0,51,0.00,,---,0.00,VWS V14.01,2013-03-25 14:35:00,
2013-03-25 09:41:00,42.2,25.9,30.16,NNW,347,8.0,17.0,52,0.00,,---,0.00,VWS V14.01,2013-03-25 14:41:00,
2013-03-25 09:45:00,46.2,23.8,30.18,NNE,17,8.0,18.0,41,0.00,,---,0.00,VWS V14.01,2013-03-25 14:45:00,
2013-03-25 09:46:00,42.5,25.2,30.16,NE,36,9.0,14.0,50,0.00,,---,0.00,VWS V14.01,2013-03-25 14:46:00,
2013-03-25 09:51:00,43.1,25.7,30.16,NNE,16,6.0,20.0,50,0.00,,---,0.00,VWS V14.01,2013-03-25 14:51:00,
2013-03-25 09:56:00,43.6,25.7,30.16,NE,45,8.0,20.0,49,0.00,,---,0.00,VWS V14.01,2013-03-25 14:56:00,
2013-03-25 10:00:00,47.3,24.8,30.19,NW,321,7.0,18.0,41,0.00,,---,0.00,VWS V14.01,2013-03-25 15:00:00,
2013-03-25 10:01:00,44.1,24.1,30.17,North,5,6.0,15.0,45,0.00,,---,0.00,VWS V14.01,2013-03-25 15:01:00,
2013-03-25 10:06:00,44.3,25.9,30.17,NNW,340,5.0,15.0,48,0.00,,---,0.00,VWS V14.01,2013-03-25 15:06:00,
2013-03-25 10:11:00,44.6,25.1,30.17,North,5,6.0,15.0,46,0.00,,---,0.00,VWS V14.01,2013-03-25 15:11:00,
2013-03-25 10:15:00,48.2,23.2,30.19,NW,311,5.0,20.0,37,0.00,,---,0.00,VWS V14.01,2013-03-25 15:15:00,
2013-03-25 10:16:00,44.6,24.6,30.17,North,355,5.0,15.0,45,0.00,,---,0.00,VWS V14.01,2013-03-25 15:16:00,
2013-03-25 10:22:00,45.1,25.6,30.17,North,5,11.0,15.0,46,0.00,,---,0.00,VWS V14.01,2013-03-25 15:22:00,
2013-03-25 10:27:00,45.1,25.6,30.17,NNW,344,10.0,16.0,46,0.00,,---,0.00,VWS V14.01,2013-03-25 15:27:00,
2013-03-25 10:30:00,49.2,24.1,30.19,North,355,3.0,18.0,37,0.00,,---,0.00,VWS V14.01,2013-03-25 15:30:00,
2013-03-25 10:32:00,45.5,24.9,30.17,North,5,10.0,16.0,44,0.00,,---,0.00,VWS V14.01,2013-03-25 15:32:00,
2013-03-25 10:38:00,46.0,24.2,30.17,NE,34,8.0,18.0,42,0.00,,---,0.00,VWS V14.01,2013-03-25 15:38:00,
2013-03-25 10:43:00,46.1,23.7,30.17,NNW,348,1.0,18.0,41,0.00,,---,0.00,VWS V14.01,2013-03-25 15:43:00,
2013-03-25 10:45:00,49.8,22.6,30.19,North,360,0.0,16.0,34,0.00,,---,0.00,VWS V14.01,2013-03-25 15:45:00,
2013-03-25 10:48:00,46.5,24.1,30.18,NNE,29,16.0,18.0,41,0.00,,---,0.00,VWS V14.01,2013-03-25 15:48:00,
2013-03-25 10:53:00,47.3,24.8,30.18,North,360,11.0,18.0,41,0.00,,---,0.00,VWS V14.01,2013-03-25 15:53:00,
2013-03-25 10:58:00,47.3,24.8,30.18,NNW,346,12.0,18.0,41,0.00,,---,0.00,VWS V14.01,2013-03-25 15:58:00,
2013-03-25 11:00:00,50.1,19.9,30.18,North,355,12.0,17.0,30,0.00,,---,0.00,VWS V14.01,2013-03-25 16:00:00,
2013-03-25 11:03:00,47.3,22.4,30.19,NW,321,4.0,17.0,37,0.00,,---,0.00,VWS V14.01,2013-03-25 16:03:00,
2013-03-25 11:08:00,47.7,23.4,30.19,North,355,1.0,20.0,38,0.00,,---,0.00,VWS V14.01,2013-03-25 16:08:00,
2013-03-25 11:13:00,48.2,23.8,30.19,NNW,342,9.0,20.0,38,0.00,,---,0.00,VWS V14.01,2013-03-25 16:13:00,
2013-03-25 11:15:00,50.8,19.7,30.17,NW,318,9.0,16.0,29,0.00,,---,0.00,VWS V14.01,2013-03-25 16:15:00,
2013-03-25 11:18:00,48.0,24.2,30.19,NW,324,6.0,11.0,39,0.00,,---,0.00,VWS V14.01,2013-03-25 16:18:00,
2013-03-25 11:23:00,48.3,23.9,30.19,North,360,4.0,18.0,38,0.00,,---,0.00,VWS V14.01,2013-03-25 16:23:00,
2013-03-25 11:28:00,49.1,24.6,30.19,NNW,327,5.0,18.0,38,0.00,,---,0.00,VWS V14.01,2013-03-25 16:28:00,
2013-03-25 11:30:00,52.5,23.5,30.17,North,5,9.0,17.0,32,0.00,,---,0.00,VWS V14.01,2013-03-25 16:30:00,
2013-03-25 11:33:00,49.4,20.8,30.19,ENE,59,5.0,16.0,32,0.00,,---,0.00,VWS V14.01,2013-03-25 16:33:00,
2013-03-25 11:38:00,49.5,22.3,30.19,NW,319,3.0,16.0,34,0.00,,---,0.00,VWS V14.01,2013-03-25 16:38:00,
2013-03-25 11:43:00,49.8,23.3,30.19,North,360,4.0,16.0,35,0.00,,---,0.00,VWS V14.01,2013-03-25 16:43:00,
2013-03-25 11:45:00,52.3,21.8,30.16,North,5,5.0,20.0,30,0.00,,---,0.00,VWS V14.01,2013-03-25 16:45:00,
2013-03-25 11:48:00,50.1,24.9,30.19,NNW,340,7.0,7.0,37,0.00,,---,0.00,VWS V14.01,2013-03-25 16:48:00,
2013-03-25 11:53:00,50.1,24.9,30.19,NE,37,9.0,17.0,37,0.00,,---,0.00,VWS V14.01,2013-03-25 16:53:00,
2013-03-25 11:59:00,50.2,20.0,30.18,North,350,9.0,17.0,30,0.00,,---,0.00,VWS V14.01,2013-03-25 16:59:00,
2013-03-25 12:00:00,53.2,22.6,30.15,North,355,4.0,14.0,30,0.00,,---,0.00,VWS V14.01,2013-03-25 17:00:00,
2013-03-25 12:04:00,49.9,20.5,30.18,NW,321,11.0,13.0,31,0.00,,---,0.00,VWS V14.01,2013-03-25 17:04:00,
2013-03-25 12:09:00,50.2,21.5,30.18,North,5,13.0,16.0,32,0.00,,---,0.00,VWS V14.01,2013-03-25 17:09:00,
2013-03-25 12:14:00,50.8,19.7,30.17,NW,318,9.0,16.0,29,0.00,,---,0.00,VWS V14.01,2013-03-25 17:14:00,
2013-03-25 12:15:00,53.8,19.7,30.15,NNW,329,5.0,21.0,26,0.00,,---,0.00,VWS V14.01,2013-03-25 17:15:00,
2013-03-25 12:19:00,51.1,22.3,30.17,NNW,335,3.0,16.0,32,0.00,,---,0.00,VWS V14.01,2013-03-25 17:19:00,
2013-03-25 12:24:00,51.6,20.4,30.17,NNW,340,4.0,17.0,29,0.00,,---,0.00,VWS V14.01,2013-03-25 17:24:00,
2013-03-25 12:29:00,52.5,22.0,30.17,North,9,11.0,11.0,30,0.00,,---,0.00,VWS V14.01,2013-03-25 17:29:00,
2013-03-25 12:30:00,54.7,23.1,30.14,North,355,6.0,13.0,29,0.00,,---,0.00,VWS V14.01,2013-03-25 17:30:00,
2013-03-25 12:34:00,52.5,22.0,30.17,NNE,13,10.0,20.0,30,0.00,,---,0.00,VWS V14.01,2013-03-25 17:34:00,
2013-03-25 12:39:00,52.3,23.3,30.17,NNW,333,6.0,20.0,32,0.00,,---,0.00,VWS V14.01,2013-03-25 17:39:00,
2013-03-25 12:44:00,52.5,22.0,30.16,NNE,19,6.0,9.0,30,0.00,,---,0.00,VWS V14.01,2013-03-25 17:44:00,
2013-03-25 12:45:00,54.8,22.3,30.14,NNW,329,3.0,20.0,28,0.00,,---,0.00,VWS V14.01,2013-03-25 17:45:00,
2013-03-25 12:49:00,52.9,22.3,30.16,North,351,3.0,10.0,30,0.00,,---,0.00,VWS V14.01,2013-03-25 17:49:00,
2013-03-25 12:54:00,53.1,20.9,30.16,NW,326,11.0,14.0,28,0.00,,---,0.00,VWS V14.01,2013-03-25 17:54:00,
2013-03-25 12:59:00,53.3,22.7,30.15,North,355,12.0,12.0,30,0.00,,---,0.00,VWS V14.01,2013-03-25 17:59:00,
2013-03-25 13:00:00,55.0,26.4,30.13,North,355,11.0,14.0,33,0.00,,---,0.00,VWS V14.01,2013-03-25 18:00:00,
2013-03-25 13:04:00,53.6,22.9,30.15,NNW,342,3.0,14.0,30,0.00,,---,0.00,VWS V14.01,2013-03-25 18:04:00,
2013-03-25 13:10:00,54.1,22.6,30.15,North,9,3.0,21.0,29,0.00,,---,0.00,VWS V14.01,2013-03-25 18:10:00,
2013-03-25 13:15:00,53.6,22.9,30.15,NW,321,6.0,10.0,30,0.00,,---,0.00,VWS V14.01,2013-03-25 18:15:00,
2013-03-25 13:20:00,53.9,24.0,30.15,NNW,330,6.0,13.0,31,0.00,,---,0.00,VWS V14.01,2013-03-25 18:20:00,
2013-03-25 13:25:00,54.2,21.0,30.15,North,360,2.0,13.0,27,0.00,,---,0.00,VWS V14.01,2013-03-25 18:25:00,
2013-03-25 13:30:00,54.7,21.4,30.14,NNW,333,4.0,7.0,27,0.00,,---,0.00,VWS V14.01,2013-03-25 18:30:00,
2013-03-25 13:35:00,54.8,23.2,30.14,NNW,346,5.0,13.0,29,0.00,,---,0.00,VWS V14.01,2013-03-25 18:35:00,
2013-03-25 13:40:00,54.7,19.6,30.14,North,355,6.0,20.0,25,0.00,,---,0.00,VWS V14.01,2013-03-25 18:40:00,
2013-03-25 13:45:00,54.8,22.3,30.14,NNW,336,6.0,9.0,28,0.00,,---,0.00,VWS V14.01,2013-03-25 18:45:00,
2013-03-25 13:50:00,55.0,20.8,30.14,NNW,336,4.0,13.0,26,0.00,,---,0.00,VWS V14.01,2013-03-25 18:50:00,
2013-03-25 13:55:00,55.0,20.8,30.14,North,360,10.0,14.0,26,0.00,,---,0.00,VWS V14.01,2013-03-25 18:55:00,
2013-03-25 14:00:00,55.0,24.2,30.13,NNW,331,6.0,12.0,30,0.00,,---,0.00,VWS V14.01,2013-03-25 19:00:00,
2013-03-25 14:05:00,54.7,23.9,30.13,NNW,333,7.0,15.0,30,0.00,,---,0.00,VWS V14.01,2013-03-25 19:05:00,
2013-03-25 14:10:00,54.4,21.1,30.13,NW,319,9.0,18.0,27,0.00,,---,0.00,VWS V14.01,2013-03-25 19:10:00,
2013-03-25 14:15:00,55.6,22.2,30.09,North,350,7.0,21.0,27,0.00,,---,0.00,VWS V14.01,2013-03-25 19:15:00,
2013-03-25 14:16:00,54.7,20.5,30.13,NNW,342,12.0,15.0,26,0.00,,---,0.00,VWS V14.01,2013-03-25 19:16:00,
2013-03-25 14:21:00,54.5,22.9,30.13,NNW,346,11.0,16.0,29,0.00,,---,0.00,VWS V14.01,2013-03-25 19:21:00,
2013-03-25 14:26:00,54.7,22.3,30.13,North,5,6.0,16.0,28,0.00,,---,0.00,VWS V14.01,2013-03-25 19:26:00,
2013-03-25 14:30:00,56.0,21.6,30.08,North,355,10.0,15.0,26,0.00,,---,0.00,VWS V14.01,2013-03-25 19:30:00,
2013-03-25 14:31:00,54.8,21.5,30.11,NW,319,9.0,11.0,27,0.00,,---,0.00,VWS V14.01,2013-03-25 19:31:00,
2013-03-25 14:36:00,54.5,21.2,30.11,NW,316,4.0,16.0,27,0.00,,---,0.00,VWS V14.01,2013-03-25 19:36:00,
2013-03-25 14:41:00,55.1,25.0,30.11,NW,306,2.0,16.0,31,0.00,,---,0.00,VWS V14.01,2013-03-25 19:41:00,
2013-03-25 14:45:00,56.7,24.8,30.07,NNW,345,0.0,17.0,29,0.00,,---,0.00,VWS V14.01,2013-03-25 19:45:00,
2013-03-25 14:46:00,55.4,22.0,30.11,NNW,340,4.0,11.0,27,0.00,,---,0.00,VWS V14.01,2013-03-25 19:46:00,
2013-03-25 14:52:00,55.3,21.9,30.11,WNW,301,8.0,18.0,27,0.00,,---,0.00,VWS V14.01,2013-03-25 19:52:00,
2013-03-25 14:57:00,55.1,21.7,30.11,NNW,347,10.0,18.0,27,0.00,,---,0.00,VWS V14.01,2013-03-25 19:57:00,
2013-03-25 15:00:00,56.9,24.1,30.07,North,360,7.0,21.0,28,0.00,,---,0.00,VWS V14.01,2013-03-25 20:00:00,
2013-03-25 15:02:00,55.4,22.9,30.10,WNW,298,12.0,12.0,28,0.00,,---,0.00,VWS V14.01,2013-03-25 20:02:00,
2013-03-25 15:07:00,55.9,23.3,30.10,NNE,12,14.0,21.0,28,0.00,,---,0.00,VWS V14.01,2013-03-25 20:07:00,
2013-03-25 15:12:00,55.6,23.0,30.10,NNW,338,3.0,21.0,28,0.00,,---,0.00,VWS V14.01,2013-03-25 20:12:00,
2013-03-25 15:15:00,57.5,23.8,30.07,WNW,299,6.0,16.0,27,0.00,,---,0.00,VWS V14.01,2013-03-25 20:15:00,
2013-03-25 15:17:00,55.6,22.2,30.09,NNW,338,10.0,10.0,27,0.00,,---,0.00,VWS V14.01,2013-03-25 20:17:00,
2013-03-25 15:22:00,55.7,23.1,30.09,NW,315,5.0,12.0,28,0.00,,---,0.00,VWS V14.01,2013-03-25 20:22:00,
2013-03-25 15:27:00,55.9,23.3,30.09,NNW,342,6.0,14.0,28,0.00,,---,0.00,VWS V14.01,2013-03-25 20:27:00,
2013-03-25 15:30:00,57.5,24.7,30.07,NNW,338,4.0,17.0,28,0.00,,---,0.00,VWS V14.01,2013-03-25 20:30:00,
2013-03-25 15:32:00,56.3,22.8,30.08,NNW,348,11.0,17.0,27,0.00,,---,0.00,VWS V14.01,2013-03-25 20:32:00,
2013-03-25 15:37:00,56.5,25.5,30.08,North,11,11.0,17.0,30,0.00,,---,0.00,VWS V14.01,2013-03-25 20:37:00,
2013-03-25 15:42:00,56.7,24.8,30.08,NW,325,5.0,17.0,29,0.00,,---,0.00,VWS V14.01,2013-03-25 20:42:00,
2013-03-25 15:45:00,57.6,22.1,30.07,NNW,333,12.0,15.0,25,0.00,,---,0.00,VWS V14.01,2013-03-25 20:45:00,
2013-03-25 15:47:00,56.9,23.3,30.07,NW,319,9.0,11.0,27,0.00,,---,0.00,VWS V14.01,2013-03-25 20:47:00,
2013-03-25 15:52:00,56.9,24.1,30.07,North,355,13.0,15.0,28,0.00,,---,0.00,VWS V14.01,2013-03-25 20:52:00,
2013-03-25 15:57:00,56.7,22.2,30.07,North,351,10.0,21.0,26,0.00,,---,0.00,VWS V14.01,2013-03-25 20:57:00,
2013-03-25 16:00:00,57.3,22.7,30.07,North,5,4.0,16.0,26,0.00,,---,0.00,VWS V14.01,2013-03-25 21:00:00,
2013-03-25 16:02:00,57.0,23.4,30.07,North,9,9.0,14.0,27,0.00,,---,0.00,VWS V14.01,2013-03-25 21:02:00,
2013-03-25 16:07:00,57.0,24.2,30.07,North,360,7.0,16.0,28,0.00,,---,0.00,VWS V14.01,2013-03-25 21:07:00,
2013-03-25 16:12:00,57.5,22.9,30.07,NW,322,6.0,16.0,26,0.00,,---,0.00,VWS V14.01,2013-03-25 21:12:00,
2013-03-25 16:15:00,57.6,21.1,30.07,WNW,294,11.0,16.0,24,0.00,,---,0.00,VWS V14.01,2013-03-25 21:15:00,
2013-03-25 16:17:00,57.3,23.6,30.07,NNW,327,4.0,17.0,27,0.00,,---,0.00,VWS V14.01,2013-03-25 21:17:00,
2013-03-25 16:22:00,57.5,24.7,30.07,NW,309,8.0,17.0,28,0.00,,---,0.00,VWS V14.01,2013-03-25 21:22:00,
2013-03-25 16:27:00,57.5,24.7,30.07,NNW,339,1.0,17.0,28,0.00,,---,0.00,VWS V14.01,2013-03-25 21:27:00,
2013-03-25 16:30:00,57.5,22.9,30.07,NW,308,7.0,14.0,26,0.00,,---,0.00,VWS V14.01,2013-03-25 21:30:00,
2013-03-25 16:32:00,57.5,22.9,30.07,NW,314,7.0,15.0,26,0.00,,---,0.00,VWS V14.01,2013-03-25 21:32:00,
2013-03-25 16:37:00,57.6,23.0,30.07,NW,321,4.0,15.0,26,0.00,,---,0.00,VWS V14.01,2013-03-25 21:37:00,
2013-03-25 16:42:00,57.6,23.9,30.07,North,5,13.0,15.0,27,0.00,,---,0.00,VWS V14.01,2013-03-25 21:42:00,
2013-03-25 16:45:00,58.0,22.4,30.08,NNW,344,4.0,13.0,25,0.00,,---,0.00,VWS V14.01,2013-03-25 21:45:00,
2013-03-25 16:47:00,57.5,22.9,30.07,NW,317,15.0,15.0,26,0.00,,---,0.00,VWS V14.01,2013-03-25 21:47:00,
2013-03-25 16:52:00,57.2,22.6,30.07,North,355,3.0,16.0,26,0.00,,---,0.00,VWS V14.01,2013-03-25 21:52:00,
2013-03-25 16:58:00,57.3,22.7,30.07,NW,326,4.0,16.0,26,0.00,,---,0.00,VWS V14.01,2013-03-25 21:58:00,
2013-03-25 17:00:00,57.6,23.0,30.08,NW,309,6.0,14.0,26,0.00,,---,0.00,VWS V14.01,2013-03-25 22:00:00,
2013-03-25 17:03:00,57.6,23.0,30.07,North,5,5.0,11.0,26,0.00,,---,0.00,VWS V14.01,2013-03-25 22:03:00,
2013-03-25 17:08:00,58.0,24.2,30.07,NW,324,9.0,11.0,27,0.00,,---,0.00,VWS V14.01,2013-03-25 22:08:00,
2013-03-25 17:13:00,57.8,22.2,30.07,NW,306,5.0,13.0,25,0.00,,---,0.00,VWS V14.01,2013-03-25 22:13:00,
2013-03-25 17:15:00,57.6,23.0,30.08,NW,306,4.0,14.0,26,0.00,,---,0.00,VWS V14.01,2013-03-25 22:15:00,
2013-03-25 17:18:00,57.6,23.9,30.07,NNW,348,9.0,12.0,27,0.00,,---,0.00,VWS V14.01,2013-03-25 22:18:00,
2013-03-25 17:23:00,57.6,21.1,30.07,NE,34,5.0,13.0,24,0.00,,---,0.00,VWS V14.01,2013-03-25 22:23:00,
2013-03-25 17:28:00,57.5,22.9,30.07,NW,321,6.0,14.0,26,0.00,,---,0.00,VWS V14.01,2013-03-25 22:28:00,
2013-03-25 17:30:00,57.3,20.8,30.08,North,350,9.0,10.0,24,0.00,,---,0.00,VWS V14.01,2013-03-25 22:30:00,
2013-03-25 17:33:00,57.6,23.9,30.07,NNW,340,3.0,9.0,27,0.00,,---,0.00,VWS V14.01,2013-03-25 22:33:00,
2013-03-25 17:38:00,57.8,23.2,30.07,NNW,331,1.0,9.0,26,0.00,,---,0.00,VWS V14.01,2013-03-25 22:38:00,
2013-03-25 17:43:00,58.0,22.4,30.08,NW,312,6.0,13.0,25,0.00,,---,0.00,VWS V14.01,2013-03-25 22:43:00,
2013-03-25 17:45:00,56.3,20.0,30.09,NNW,338,4.0,14.0,24,0.00,,---,0.00,VWS V14.01,2013-03-25 22:45:00,
2013-03-25 17:48:00,57.6,23.0,30.08,NNE,28,7.0,12.0,26,0.00,,---,0.00,VWS V14.01,2013-03-25 22:48:00,
2013-03-25 17:53:00,57.6,22.1,30.08,NNW,332,3.0,14.0,25,0.00,,---,0.00,VWS V14.01,2013-03-25 22:53:00,
2013-03-25 17:58:00,57.6,22.1,30.08,NW,319,5.0,14.0,25,0.00,,---,0.00,VWS V14.01,2013-03-25 22:58:00,
2013-03-25 18:00:00,55.4,21.1,30.10,NNW,331,4.0,11.0,26,0.00,,---,0.00,VWS V14.01,2013-03-25 23:00:00,
2013-03-25 18:03:00,57.8,23.2,30.08,NW,323,2.0,6.0,26,0.00,,---,0.00,VWS V14.01,2013-03-25 23:03:00,
2013-03-25 18:08:00,57.6,21.1,30.08,NW,313,5.0,14.0,24,0.00,,---,0.00,VWS V14.01,2013-03-25 23:08:00,
2013-03-25 18:13:00,57.6,23.0,30.08,NW,319,3.0,14.0,26,0.00,,---,0.00,VWS V14.01,2013-03-25 23:13:00,
2013-03-25 18:15:00,54.5,19.4,30.10,NNW,331,11.0,14.0,25,0.00,,---,0.00,VWS V14.01,2013-03-25 23:15:00,
2013-03-25 18:19:00,57.5,22.9,30.08,NNW,331,2.0,5.0,26,0.00,,---,0.00,VWS V14.01,2013-03-25 23:19:00,
2013-03-25 18:24:00,57.5,22.0,30.08,NNW,338,5.0,9.0,25,0.00,,---,0.00,VWS V14.01,2013-03-25 23:24:00,
2013-03-25 18:29:00,57.3,20.8,30.08,North,350,9.0,10.0,24,0.00,,---,0.00,VWS V14.01,2013-03-25 23:29:00,
2013-03-25 18:30:00,54.1,19.1,30.11,NNW,327,3.0,15.0,25,0.00,,---,0.00,VWS V14.01,2013-03-25 23:30:00,
2013-03-25 18:34:00,57.0,21.5,30.08,NNW,338,3.0,14.0,25,0.00,,---,0.00,VWS V14.01,2013-03-25 23:34:00,
2013-03-25 18:39:00,56.6,21.2,30.08,North,351,4.0,14.0,25,0.00,,---,0.00,VWS V14.01,2013-03-25 23:39:00,
2013-03-25 18:44:00,56.3,20.0,30.09,NNW,338,4.0,14.0,24,0.00,,---,0.00,VWS V14.01,2013-03-25 23:44:00,
2013-03-25 18:45:00,53.2,20.1,30.11,NNW,338,4.0,11.0,27,0.00,,---,0.00,VWS V14.01,2013-03-25 23:45:00,
2013-03-25 18:49:00,56.0,21.6,30.09,NNW,336,5.0,11.0,26,0.00,,---,0.00,VWS V14.01,2013-03-25 23:49:00,
2013-03-25 18:54:00,55.7,20.4,30.09,NW,319,5.0,11.0,25,0.00,,---,0.00,VWS V14.01,2013-03-25 23:54:00,
2013-03-25 18:59:00,55.4,21.1,30.10,NNW,348,5.0,5.0,26,0.00,,---,0.00,VWS V14.01,2013-03-25 23:59:00,
2013-03-25 19:00:00,52.5,20.4,30.12,NNW,327,7.0,12.0,28,0.00,,---,0.00,VWS V14.01,2013-03-26 00:00:00,
2013-03-25 19:04:00,55.1,19.9,30.10,NNW,331,3.0,12.0,25,0.00,,---,0.00,VWS V14.01,2013-03-26 00:04:00,
2013-03-25 19:09:00,54.8,19.7,30.10,NW,324,6.0,14.0,25,0.00,,---,0.00,VWS V14.01,2013-03-26 00:09:00,
2013-03-25 19:14:00,54.5,19.4,30.10,NNW,336,8.0,12.0,25,0.00,,---,0.00,VWS V14.01,2013-03-26 00:14:00,
2013-03-25 19:15:00,52.3,20.2,30.13,NNW,346,4.0,7.0,28,0.00,,---,0.00,VWS V14.01,2013-03-26 00:15:00,
2013-03-25 19:19:00,54.4,19.3,30.10,NNW,327,6.0,15.0,25,0.00,,---,0.00,VWS V14.01,2013-03-26 00:19:00,
2013-03-25 19:24:00,54.1,19.1,30.10,NNW,346,5.0,15.0,25,0.00,,---,0.00,VWS V14.01,2013-03-26 00:24:00,
2013-03-25 19:29:00,54.1,19.1,30.11,NNE,29,3.0,5.0,25,0.00,,---,0.00,VWS V14.01,2013-03-26 00:29:00,
2013-03-25 19:30:00,51.4,21.0,30.13,NW,325,3.0,7.0,30,0.00,,---,0.00,VWS V14.01,2013-03-26 00:30:00,
2013-03-25 19:34:00,53.8,20.6,30.11,North,355,4.0,6.0,27,0.00,,---,0.00,VWS V14.01,2013-03-26 00:34:00,
2013-03-25 19:39:00,53.5,20.4,30.11,NNW,335,6.0,10.0,27,0.00,,---,0.00,VWS V14.01,2013-03-26 00:39:00,
2013-03-25 19:44:00,53.2,20.1,30.11,NNW,344,1.0,4.0,27,0.00,,---,0.00,VWS V14.01,2013-03-26 00:44:00,
2013-03-25 19:45:00,50.4,23.1,30.14,NNW,346,0.0,4.0,34,0.00,,---,0.00,VWS V14.01,2013-03-26 00:45:00,
2013-03-25 19:49:00,53.1,20.9,30.11,NNW,333,2.0,7.0,28,0.00,,---,0.00,VWS V14.01,2013-03-26 00:49:00,
2013-03-25 19:55:00,52.8,20.6,30.11,NNW,340,2.0,12.0,28,0.00,,---,0.00,VWS V14.01,2013-03-26 00:55:00,
2013-03-25 20:00:00,52.5,19.5,30.12,North,355,4.0,7.0,27,0.00,,---,0.00,VWS V14.01,2013-03-26 01:00:00,
2013-03-25 20:05:00,52.5,20.4,30.12,North,5,5.0,7.0,28,0.00,,---,0.00,VWS V14.01,2013-03-26 01:05:00,
2013-03-25 20:10:00,52.3,20.2,30.12,NNW,342,3.0,7.0,28,0.00,,---,0.00,VWS V14.01,2013-03-26 01:10:00,
2013-03-25 20:15:00,52.3,20.2,30.13,NNW,346,2.0,4.0,28,0.00,,---,0.00,VWS V14.01,2013-03-26 01:15:00,
2013-03-25 20:20:00,52.0,20.8,30.13,NNW,342,2.0,5.0,29,0.00,,---,0.00,VWS V14.01,2013-03-26 01:20:00,
2013-03-25 20:25:00,51.7,22.1,30.13,NNW,338,1.0,5.0,31,0.00,,---,0.00,VWS V14.01,2013-03-26 01:25:00,
2013-03-25 20:30:00,51.4,22.5,30.13,NNW,330,2.0,3.0,32,0.00,,---,0.00,VWS V14.01,2013-03-26 01:30:00,
2013-03-25 20:35:00,51.0,21.5,30.13,NNW,346,2.0,4.0,31,0.00,,---,0.00,VWS V14.01,2013-03-26 01:35:00,
2013-03-25 20:40:00,50.7,21.9,30.13,NNW,346,0.0,4.0,32,0.00,,---,0.00,VWS V14.01,2013-03-26 01:40:00,
2013-03-25 20:45:00,50.4,22.4,30.14,NNW,346,0.0,1.0,33,0.00,,---,0.00,VWS V14.01,2013-03-26 01:45:00,
2013-03-25 20:50:00,49.9,22.7,30.14,North,350,0.0,4.0,34,0.00,,---,0.00,VWS V14.01,2013-03-26 01:50:00,
2013-03-25 20:55:00,49.4,22.9,30.14,North,350,0.0,4.0,35,0.00,,---,0.00,VWS V14.01,2013-03-26 01:55:00,
2013-03-25 21:00:00,49.1,23.3,30.14,North,350,0.0,0.0,36,0.00,,---,0.00,VWS V14.01,2013-03-26 02:00:00,
2013-03-25 21:05:00,48.6,23.5,30.14,North,350,0.0,0.0,37,0.00,,---,0.00,VWS V14.01,2013-03-26 02:05:00,
2013-03-25 21:11:00,48.2,23.8,30.14,North,350,0.0,1.0,38,0.00,,---,0.00,VWS V14.01,2013-03-26 02:11:00,
2013-03-25 21:15:00,47.0,24.5,30.19,North,355,2.0,9.0,41,0.00,,---,0.00,VWS V14.01,2013-03-26 02:15:00,
2013-03-25 21:16:00,47.7,24.0,30.15,North,350,0.0,0.0,39,0.00,,---,0.00,VWS V14.01,2013-03-26 02:16:00,
2013-03-25 21:21:00,47.3,24.2,30.15,North,350,0.0,0.0,40,0.00,,---,0.00,VWS V14.01,2013-03-26 02:21:00,
2013-03-25 21:26:00,46.8,24.4,30.15,North,350,0.0,0.0,41,0.00,,---,0.00,VWS V14.01,2013-03-26 02:26:00,
2013-03-25 21:30:00,47.3,23.0,30.20,NE,35,1.0,9.0,38,0.00,,---,0.00,VWS V14.01,2013-03-26 02:30:00,
2013-03-25 21:31:00,46.4,26.8,30.16,North,350,0.0,0.0,46,0.00,,---,0.00,VWS V14.01,2013-03-26 02:31:00,
2013-03-25 21:36:00,46.0,28.9,30.16,North,350,1.0,4.0,51,0.00,,---,0.00,VWS V14.01,2013-03-26 02:36:00,
2013-03-25 21:41:00,45.5,28.0,30.16,North,350,1.0,4.0,50,0.00,,---,0.00,VWS V14.01,2013-03-26 02:41:00,
2013-03-25 21:45:00,46.8,24.4,30.20,North,349,1.0,7.0,41,0.00,,---,0.00,VWS V14.01,2013-03-26 02:45:00,
2013-03-25 21:47:00,45.4,26.4,30.17,North,350,2.0,3.0,47,0.00,,---,0.00,VWS V14.01,2013-03-26 02:47:00,
2013-03-25 21:52:00,45.7,25.6,30.17,NW,321,0.0,4.0,45,0.00,,---,0.00,VWS V14.01,2013-03-26 02:52:00,
2013-03-25 21:57:00,46.0,25.9,30.17,North,355,3.0,5.0,45,0.00,,---,0.00,VWS V14.01,2013-03-26 02:57:00,
2013-03-25 22:00:00,45.8,24.0,30.21,North,355,0.0,3.0,42,0.00,,---,0.00,VWS V14.01,2013-03-26 03:00:00,
2013-03-25 22:01:00,45.8,24.0,30.21,North,355,0.0,3.0,42,0.00,,---,0.00,VWS V14.01,2013-03-26 03:01:00,
2013-03-25 22:02:00,46.2,25.5,30.18,NNW,337,2.0,7.0,44,0.00,,---,0.00,VWS V14.01,2013-03-26 03:02:00,
2013-03-25 22:03:00,45.8,25.1,30.21,North,355,1.0,3.0,44,0.00,,---,0.00,VWS V14.01,2013-03-26 03:03:00,
2013-03-25 22:04:00,45.7,25.0,30.21,NNE,25,3.0,9.0,44,0.00,,---,0.00,VWS V14.01,2013-03-26 03:04:00,
2013-03-25 22:05:00,45.7,24.5,30.21,NNE,21,2.0,9.0,43,0.00,,---,0.00,VWS V14.01,2013-03-26 03:05:00,
2013-03-25 22:06:00,45.7,25.0,30.21,NNE,14,3.0,9.0,44,0.00,,---,0.00,VWS V14.01,2013-03-26 03:06:00,
2013-03-25 22:07:00,46.7,25.4,30.18,North,9,3.0,7.0,43,0.00,,---,0.00,VWS V14.01,2013-03-26 03:07:00,
2013-03-25 22:08:00,45.5,24.9,30.21,North,5,1.0,9.0,44,0.00,,---,0.00,VWS V14.01,2013-03-26 03:08:00,
2013-03-25 22:09:00,45.5,24.9,30.21,North,10,5.0,9.0,44,0.00,,---,0.00,VWS V14.01,2013-03-26 03:09:00,
2013-03-25 22:10:00,45.5,23.8,30.21,NNW,344,0.0,9.0,42,0.00,,---,0.00,VWS V14.01,2013-03-26 03:10:00,
2013-03-25 22:11:00,45.5,24.9,30.21,NNW,344,0.0,9.0,44,0.00,,---,0.00,VWS V14.01,2013-03-26 03:11:00,
2013-03-25 22:12:00,47.0,24.5,30.18,North,350,5.0,9.0,41,0.00,,---,0.00,VWS V14.01,2013-03-26 03:12:00,
2013-03-25 22:13:00,45.4,24.8,30.21,NNE,12,1.0,9.0,44,0.00,,---,0.00,VWS V14.01,2013-03-26 03:13:00,
2013-03-25 22:14:00,45.4,24.8,30.21,NNW,338,2.0,9.0,44,0.00,,---,0.00,VWS V14.01,2013-03-26 03:14:00,
2013-03-25 22:15:00,45.4,24.8,30.22,NNW,338,0.0,9.0,44,0.00,,---,0.00,VWS V14.01,2013-03-26 03:15:00,
2013-03-25 22:16:00,45.2,24.6,30.22,NNW,335,2.0,5.0,44,0.00,,---,0.00,VWS V14.01,2013-03-26 03:16:00,
2013-03-25 22:17:00,47.0,24.5,30.19,North,5,2.0,5.0,41,0.00,,---,0.00,VWS V14.01,2013-03-26 03:17:00,
2013-03-25 22:18:00,45.2,25.1,30.22,North,355,0.0,5.0,45,0.00,,---,0.00,VWS V14.01,2013-03-26 03:18:00,
2013-03-25 22:19:00,45.1,25.0,30.22,North,355,0.0,5.0,45,0.00,,---,0.00,VWS V14.01,2013-03-26 03:19:00,
2013-03-25 22:20:00,45.1,25.0,30.22,North,5,1.0,5.0,45,0.00,,---,0.00,VWS V14.01,2013-03-26 03:20:00,
2013-03-25 22:22:00,47.1,23.4,30.19,North,350,2.0,9.0,39,0.00,,---,0.00,VWS V14.01,2013-03-26 03:22:00,
2013-03-25 22:27:00,47.3,23.6,30.19,North,355,2.0,9.0,39,0.00,,---,0.00,VWS V14.01,2013-03-26 03:27:00,
2013-03-25 22:30:00,44.5,25.5,30.22,North,5,0.0,5.0,47,0.00,,---,0.00,VWS V14.01,2013-03-26 03:30:00,
2013-03-25 22:32:00,47.3,23.6,30.20,NNW,346,3.0,5.0,39,0.00,,---,0.00,VWS V14.01,2013-03-26 03:32:00,
2013-03-25 22:37:00,47.1,24.0,30.20,North,5,2.0,7.0,40,0.00,,---,0.00,VWS V14.01,2013-03-26 03:37:00,
2013-03-25 22:42:00,46.8,24.9,30.20,North,349,2.0,7.0,42,0.00,,---,0.00,VWS V14.01,2013-03-26 03:42:00,
2013-03-25 22:45:00,44.2,25.3,30.22,NNW,334,3.0,7.0,47,0.00,,---,0.00,VWS V14.01,2013-03-26 03:45:00,
2013-03-25 22:47:00,46.5,24.7,30.20,North,350,3.0,5.0,42,0.00,,---,0.00,VWS V14.01,2013-03-26 03:47:00,
2013-03-25 22:53:00,46.1,23.7,30.20,North,355,1.0,6.0,41,0.00,,---,0.00,VWS V14.01,2013-03-26 03:53:00,
2013-03-25 22:58:00,46.0,24.8,30.20,North,5,0.0,6.0,43,0.00,,---,0.00,VWS V14.01,2013-03-26 03:58:00,
2013-03-25 23:00:00,43.8,25.4,30.22,North,355,0.0,5.0,48,0.00,,---,0.00,VWS V14.01,2013-03-26 04:00:00,
2013-03-25 23:10:00,45.4,24.8,30.21,NNW,344,1.0,9.0,44,0.00,,---,0.00,VWS V14.01,2013-03-26 04:10:00,
2013-03-25 23:15:00,45.2,24.6,30.22,NNW,335,1.0,5.0,44,0.00,,---,0.00,VWS V14.01,2013-03-26 04:15:00,
2013-03-25 23:20:00,44.9,24.9,30.22,North,5,3.0,5.0,45,0.00,,---,0.00,VWS V14.01,2013-03-26 04:20:00,
2013-03-25 23:25:00,44.6,25.1,30.22,North,5,0.0,5.0,46,0.00,,---,0.00,VWS V14.01,2013-03-26 04:25:00,
2013-03-25 23:30:00,44.3,25.4,30.22,North,360,0.0,2.0,47,0.00,,---,0.00,VWS V14.01,2013-03-26 04:30:00,
2013-03-25 23:36:00,44.2,24.8,30.22,North,349,3.0,5.0,46,0.00,,---,0.00,VWS V14.01,2013-03-26 04:36:00,
2013-03-25 23:41:00,44.3,25.4,30.22,North,355,2.0,5.0,47,0.00,,---,0.00,VWS V14.01,2013-03-26 04:41:00,
2013-03-25 23:45:00,41.9,26.0,30.23,NNE,13,0.0,4.0,53,0.00,,---,0.00,VWS V14.01,2013-03-26 04:45:00,
2013-03-25 23:46:00,44.2,25.3,30.22,NNW,342,2.0,3.0,47,0.00,,---,0.00,VWS V14.01,2013-03-26 04:46:00,
2013-03-25 23:51:00,44.2,25.3,30.22,North,355,0.0,5.0,47,0.00,,---,0.00,VWS V14.01,2013-03-26 04:51:00,
2013-03-25 23:56:00,43.9,25.5,30.22,North,355,0.0,5.0,48,0.00,,---,0.00,VWS V14.01,2013-03-26 04:56:00,